Terminal Aerodrome Forecast
Issued by NWS Kansas City/Pleasant Hill, MO

Home | Current Version | Previous Version | Text Only | Print | Product List | Glossary On
Versions: 1 2 3 4 5 6 7 8 9 10 11 12 13 14 15 16 17
000
FTUS43 KEAX 221720
TAFMCI
TAF
KMCI 221720Z 2218/2318 11013KT P6SM SCT080 BKN200
     FM230100 12012KT P6SM BKN035
     FM230600 15011KT P6SM OVC025
     FM231000 17013KT P6SM -DZ VCSH OVC020
     FM231600 18015KT P6SM BKN025=

USA.gov is the U.S. government's official web portal to all federal, state and local government web resources and services.